sensor_id;sensor_type;location;lat;lon;timestamp;P1;durP1;ratioP1;P2;durP2;ratioP2
11962;SDS011;62678;52.130;5.584;2022-12-18T00:02:15;88.65;;;36.13;;
11962;SDS011;62678;52.130;5.584;2022-12-18T00:04:42;94.38;;;35.97;;
11962;SDS011;62678;52.130;5.584;2022-12-18T00:07:09;98.38;;;38.75;;
11962;SDS011;62678;52.130;5.584;2022-12-18T00:09:36;87.47;;;36.72;;
11962;SDS011;62678;52.130;5.584;2022-12-18T00:12:03;95.70;;;36.80;;
11962;SDS011;62678;52.130;5.584;2022-12-18T00:14:31;92.47;;;35.20;;
11962;SDS011;62678;52.130;5.584;2022-12-18T00:16:58;90.53;;;35.10;;
11962;SDS011;62678;52.130;5.584;2022-12-18T00:19:25;100.28;;;38.45;;
11962;SDS011;62678;52.130;5.584;2022-12-18T00:21:52;97.90;;;37.88;;
11962;SDS011;62678;52.130;5.584;2022-12-18T00:24:19;106.55;;;38.83;;
11962;SDS011;62678;52.130;5.584;2022-12-18T00:26:46;106.80;;;40.10;;
11962;SDS011;62678;52.130;5.584;2022-12-18T00:29:13;106.00;;;38.83;;
11962;SDS011;62678;52.130;5.584;2022-12-18T00:31:41;103.00;;;39.00;;
11962;SDS011;62678;52.130;5.584;2022-12-18T00:34:09;103.85;;;39.67;;
11962;SDS011;62678;52.130;5.584;2022-12-18T00:36:37;103.55;;;39.97;;
11962;SDS011;62678;52.130;5.584;2022-12-18T00:39:05;105.10;;;39.83;;
11962;SDS011;62678;52.130;5.584;2022-12-18T00:41:32;109.72;;;39.53;;
11962;SDS011;62678;52.130;5.584;2022-12-18T00:44:17;115.38;;;40.75;;
11962;SDS011;62678;52.130;5.584;2022-12-18T00:46:46;108.47;;;40.78;;
11962;SDS011;62678;52.130;5.584;2022-12-18T00:49:14;111.20;;;40.90;;
11962;SDS011;62678;52.130;5.584;2022-12-18T00:51:41;107.55;;;40.75;;
11962;SDS011;62678;52.130;5.584;2022-12-18T00:54:09;112.95;;;42.17;;
11962;SDS011;62678;52.130;5.584;2022-12-18T00:56:36;106.55;;;39.65;;
11962;SDS011;62678;52.130;5.584;2022-12-18T00:59:03;102.47;;;38.60;;
11962;SDS011;62678;52.130;5.584;2022-12-18T01:01:30;103.95;;;39.13;;
11962;SDS011;62678;52.130;5.584;2022-12-18T01:04:00;100.50;;;38.30;;
11962;SDS011;62678;52.130;5.584;2022-12-18T01:06:28;110.30;;;40.38;;
11962;SDS011;62678;52.130;5.584;2022-12-18T01:08:55;103.95;;;37.60;;
11962;SDS011;62678;52.130;5.584;2022-12-18T01:11:22;99.75;;;38.35;;
11962;SDS011;62678;52.130;5.584;2022-12-18T01:13:49;104.00;;;38.67;;
11962;SDS011;62678;52.130;5.584;2022-12-18T01:16:17;106.10;;;38.60;;
11962;SDS011;62678;52.130;5.584;2022-12-18T01:18:44;108.10;;;38.38;;
11962;SDS011;62678;52.130;5.584;2022-12-18T01:21:13;97.47;;;36.88;;
11962;SDS011;62678;52.130;5.584;2022-12-18T01:23:41;103.85;;;37.97;;
11962;SDS011;62678;52.130;5.584;2022-12-18T01:26:11;104.10;;;38.63;;
11962;SDS011;62678;52.130;5.584;2022-12-18T01:28:40;91.55;;;36.75;;
11962;SDS011;62678;52.130;5.584;2022-12-18T01:31:11;103.65;;;38.92;;
11962;SDS011;62678;52.130;5.584;2022-12-18T01:33:39;106.47;;;38.47;;
11962;SDS011;62678;52.130;5.584;2022-12-18T01:36:07;113.05;;;40.03;;
11962;SDS011;62678;52.130;5.584;2022-12-18T01:38:36;111.10;;;38.65;;
11962;SDS011;62678;52.130;5.584;2022-12-18T01:41:03;104.97;;;38.42;;
11962;SDS011;62678;52.130;5.584;2022-12-18T01:46:16;98.82;;;37.33;;
11962;SDS011;62678;52.130;5.584;2022-12-18T01:48:46;108.75;;;38.10;;
11962;SDS011;62678;52.130;5.584;2022-12-18T01:51:14;97.95;;;36.97;;
11962;SDS011;62678;52.130;5.584;2022-12-18T01:53:43;100.97;;;37.80;;
11962;SDS011;62678;52.130;5.584;2022-12-18T01:56:14;104.13;;;37.58;;
11962;SDS011;62678;52.130;5.584;2022-12-18T01:58:46;98.00;;;39.10;;
11962;SDS011;62678;52.130;5.584;2022-12-18T02:01:19;104.47;;;37.17;;
11962;SDS011;62678;52.130;5.584;2022-12-18T02:03:47;90.95;;;36.13;;
11962;SDS011;62678;52.130;5.584;2022-12-18T02:06:15;101.85;;;37.70;;
11962;SDS011;62678;52.130;5.584;2022-12-18T02:08:50;98.18;;;37.55;;
11962;SDS011;62678;52.130;5.584;2022-12-18T02:11:32;99.43;;;36.72;;
11962;SDS011;62678;52.130;5.584;2022-12-18T02:14:08;105.85;;;38.72;;
11962;SDS011;62678;52.130;5.584;2022-12-18T02:16:43;97.65;;;36.92;;
11962;SDS011;62678;52.130;5.584;2022-12-18T02:19:18;99.82;;;37.90;;
11962;SDS011;62678;52.130;5.584;2022-12-18T02:21:55;108.10;;;37.42;;
11962;SDS011;62678;52.130;5.584;2022-12-18T02:24:31;102.22;;;37.45;;
11962;SDS011;62678;52.130;5.584;2022-12-18T02:27:09;93.40;;;37.28;;
11962;SDS011;62678;52.130;5.584;2022-12-18T02:29:38;92.43;;;35.33;;
11962;SDS011;62678;52.130;5.584;2022-12-18T02:32:12;91.47;;;36.15;;
11962;SDS011;62678;52.130;5.584;2022-12-18T02:34:42;95.38;;;35.72;;
11962;SDS011;62678;52.130;5.584;2022-12-18T02:37:11;90.13;;;36.25;;
11962;SDS011;62678;52.130;5.584;2022-12-18T02:39:42;94.68;;;35.70;;
11962;SDS011;62678;52.130;5.584;2022-12-18T02:42:11;87.60;;;35.33;;
11962;SDS011;62678;52.130;5.584;2022-12-18T02:44:41;87.78;;;35.35;;
11962;SDS011;62678;52.130;5.584;2022-12-18T02:47:09;86.88;;;35.22;;
11962;SDS011;62678;52.130;5.584;2022-12-18T02:49:40;84.15;;;35.55;;
11962;SDS011;62678;52.130;5.584;2022-12-18T02:52:19;97.90;;;35.38;;
11962;SDS011;62678;52.130;5.584;2022-12-18T02:54:57;89.00;;;34.25;;
11962;SDS011;62678;52.130;5.584;2022-12-18T02:57:35;84.50;;;34.22;;
11962;SDS011;62678;52.130;5.584;2022-12-18T03:00:08;84.85;;;35.08;;
11962;SDS011;62678;52.130;5.584;2022-12-18T03:02:39;95.72;;;33.60;;
11962;SDS011;62678;52.130;5.584;2022-12-18T03:05:12;82.10;;;33.20;;
11962;SDS011;62678;52.130;5.584;2022-12-18T03:07:42;87.10;;;34.63;;
11962;SDS011;62678;52.130;5.584;2022-12-18T03:10:16;89.63;;;34.20;;
11962;SDS011;62678;52.130;5.584;2022-12-18T03:12:50;85.30;;;33.22;;
11962;SDS011;62678;52.130;5.584;2022-12-18T03:15:22;85.20;;;33.45;;
11962;SDS011;62678;52.130;5.584;2022-12-18T03:17:52;87.65;;;33.95;;
11962;SDS011;62678;52.130;5.584;2022-12-18T03:20:23;79.75;;;33.85;;
11962;SDS011;62678;52.130;5.584;2022-12-18T03:22:56;80.50;;;31.95;;
11962;SDS011;62678;52.130;5.584;2022-12-18T03:25:28;76.88;;;32.78;;
11962;SDS011;62678;52.130;5.584;2022-12-18T03:27:58;72.95;;;31.50;;
11962;SDS011;62678;52.130;5.584;2022-12-18T03:30:29;70.47;;;29.85;;
11962;SDS011;62678;52.130;5.584;2022-12-18T03:33:00;68.18;;;28.92;;
11962;SDS011;62678;52.130;5.584;2022-12-18T03:35:33;77.72;;;29.45;;
11962;SDS011;62678;52.130;5.584;2022-12-18T03:38:02;71.10;;;28.85;;
11962;SDS011;62678;52.130;5.584;2022-12-18T03:40:29;60.00;;;27.17;;
11962;SDS011;62678;52.130;5.584;2022-12-18T03:43:03;62.42;;;27.83;;
11962;SDS011;62678;52.130;5.584;2022-12-18T03:45:36;63.22;;;28.63;;
11962;SDS011;62678;52.130;5.584;2022-12-18T03:48:08;69.07;;;28.38;;
11962;SDS011;62678;52.130;5.584;2022-12-18T03:50:44;61.13;;;27.73;;
11962;SDS011;62678;52.130;5.584;2022-12-18T03:53:18;61.42;;;27.83;;
11962;SDS011;62678;52.130;5.584;2022-12-18T03:55:51;60.25;;;29.02;;
11962;SDS011;62678;52.130;5.584;2022-12-18T03:58:20;63.42;;;27.42;;
11962;SDS011;62678;52.130;5.584;2022-12-18T04:00:51;63.67;;;28.70;;
11962;SDS011;62678;52.130;5.584;2022-12-18T04:03:21;66.38;;;28.40;;
11962;SDS011;62678;52.130;5.584;2022-12-18T04:05:50;65.10;;;27.60;;
11962;SDS011;62678;52.130;5.584;2022-12-18T04:08:18;58.85;;;26.55;;
11962;SDS011;62678;52.130;5.584;2022-12-18T04:10:46;59.50;;;26.80;;
11962;SDS011;62678;52.130;5.584;2022-12-18T04:13:22;59.83;;;26.75;;
11962;SDS011;62678;52.130;5.584;2022-12-18T04:15:50;58.53;;;26.80;;
11962;SDS011;62678;52.130;5.584;2022-12-18T04:18:17;62.88;;;27.20;;
11962;SDS011;62678;52.130;5.584;2022-12-18T04:20:44;65.55;;;29.13;;
11962;SDS011;62678;52.130;5.584;2022-12-18T04:23:11;62.00;;;27.02;;
11962;SDS011;62678;52.130;5.584;2022-12-18T04:25:38;57.53;;;26.73;;
11962;SDS011;62678;52.130;5.584;2022-12-18T04:28:05;62.28;;;27.67;;
11962;SDS011;62678;52.130;5.584;2022-12-18T04:30:33;57.67;;;26.05;;
11962;SDS011;62678;52.130;5.584;2022-12-18T04:33:00;59.70;;;28.15;;
11962;SDS011;62678;52.130;5.584;2022-12-18T04:35:27;57.95;;;26.40;;
11962;SDS011;62678;52.130;5.584;2022-12-18T04:37:53;57.40;;;26.17;;
11962;SDS011;62678;52.130;5.584;2022-12-18T04:40:20;59.75;;;26.58;;
11962;SDS011;62678;52.130;5.584;2022-12-18T04:42:47;53.35;;;26.02;;
11962;SDS011;62678;52.130;5.584;2022-12-18T04:45:14;53.70;;;23.98;;
11962;SDS011;62678;52.130;5.584;2022-12-18T04:47:42;52.63;;;24.70;;
11962;SDS011;62678;52.130;5.584;2022-12-18T04:50:09;50.10;;;23.65;;
11962;SDS011;62678;52.130;5.584;2022-12-18T04:52:36;55.10;;;25.02;;
11962;SDS011;62678;52.130;5.584;2022-12-18T04:55:03;51.90;;;25.05;;
11962;SDS011;62678;52.130;5.584;2022-12-18T04:57:30;49.08;;;23.55;;
11962;SDS011;62678;52.130;5.584;2022-12-18T04:59:57;50.42;;;23.45;;
11962;SDS011;62678;52.130;5.584;2022-12-18T05:02:24;51.60;;;23.17;;
11962;SDS011;62678;52.130;5.584;2022-12-18T05:04:52;49.30;;;23.52;;
11962;SDS011;62678;52.130;5.584;2022-12-18T05:07:19;48.33;;;22.50;;
11962;SDS011;62678;52.130;5.584;2022-12-18T05:09:46;46.75;;;21.55;;
11962;SDS011;62678;52.130;5.584;2022-12-18T05:12:14;48.53;;;23.17;;
11962;SDS011;62678;52.130;5.584;2022-12-18T05:14:41;42.17;;;21.45;;
11962;SDS011;62678;52.130;5.584;2022-12-18T05:17:08;43.38;;;21.08;;
11962;SDS011;62678;52.130;5.584;2022-12-18T05:19:35;42.28;;;20.92;;
11962;SDS011;62678;52.130;5.584;2022-12-18T05:22:05;42.10;;;20.70;;
11962;SDS011;62678;52.130;5.584;2022-12-18T05:24:35;42.03;;;20.42;;
11962;SDS011;62678;52.130;5.584;2022-12-18T05:27:02;44.67;;;21.80;;
11962;SDS011;62678;52.130;5.584;2022-12-18T05:29:29;41.83;;;21.42;;
11962;SDS011;62678;52.130;5.584;2022-12-18T05:31:55;43.67;;;21.60;;
11962;SDS011;62678;52.130;5.584;2022-12-18T05:34:22;42.97;;;20.63;;
11962;SDS011;62678;52.130;5.584;2022-12-18T05:36:49;39.20;;;20.92;;
11962;SDS011;62678;52.130;5.584;2022-12-18T05:39:17;37.50;;;19.95;;
11962;SDS011;62678;52.130;5.584;2022-12-18T05:41:44;38.25;;;19.85;;
11962;SDS011;62678;52.130;5.584;2022-12-18T05:44:11;40.33;;;19.83;;
11962;SDS011;62678;52.130;5.584;2022-12-18T05:46:38;39.83;;;20.08;;
11962;SDS011;62678;52.130;5.584;2022-12-18T05:49:07;38.95;;;20.23;;
11962;SDS011;62678;52.130;5.584;2022-12-18T05:51:34;37.05;;;19.88;;
11962;SDS011;62678;52.130;5.584;2022-12-18T05:54:01;38.70;;;20.13;;
11962;SDS011;62678;52.130;5.584;2022-12-18T05:56:29;36.83;;;18.50;;
11962;SDS011;62678;52.130;5.584;2022-12-18T05:58:56;36.72;;;18.08;;
11962;SDS011;62678;52.130;5.584;2022-12-18T06:01:23;34.53;;;18.95;;
11962;SDS011;62678;52.130;5.584;2022-12-18T06:03:52;37.42;;;19.70;;
11962;SDS011;62678;52.130;5.584;2022-12-18T06:06:20;39.42;;;19.10;;
11962;SDS011;62678;52.130;5.584;2022-12-18T06:08:48;38.05;;;19.67;;
11962;SDS011;62678;52.130;5.584;2022-12-18T06:11:17;39.50;;;20.83;;
11962;SDS011;62678;52.130;5.584;2022-12-18T06:13:46;38.85;;;19.33;;
11962;SDS011;62678;52.130;5.584;2022-12-18T06:16:15;33.97;;;19.08;;
11962;SDS011;62678;52.130;5.584;2022-12-18T06:18:42;36.40;;;18.70;;
11962;SDS011;62678;52.130;5.584;2022-12-18T06:21:08;43.28;;;20.88;;
11962;SDS011;62678;52.130;5.584;2022-12-18T06:23:35;35.58;;;18.95;;
11962;SDS011;62678;52.130;5.584;2022-12-18T06:26:03;36.83;;;19.25;;
11962;SDS011;62678;52.130;5.584;2022-12-18T06:28:31;38.05;;;19.65;;
11962;SDS011;62678;52.130;5.584;2022-12-18T06:30:59;38.38;;;19.60;;
11962;SDS011;62678;52.130;5.584;2022-12-18T06:33:26;35.83;;;18.77;;
11962;SDS011;62678;52.130;5.584;2022-12-18T06:35:54;36.92;;;20.00;;
11962;SDS011;62678;52.130;5.584;2022-12-18T06:38:21;38.13;;;19.67;;
11962;SDS011;62678;52.130;5.584;2022-12-18T06:40:47;41.33;;;20.42;;
11962;SDS011;62678;52.130;5.584;2022-12-18T06:43:14;36.75;;;18.70;;
11962;SDS011;62678;52.130;5.584;2022-12-18T06:45:41;39.00;;;20.40;;
11962;SDS011;62678;52.130;5.584;2022-12-18T06:48:09;40.28;;;20.90;;
11962;SDS011;62678;52.130;5.584;2022-12-18T06:50:36;40.53;;;19.98;;
11962;SDS011;62678;52.130;5.584;2022-12-18T06:53:03;37.83;;;19.40;;
11962;SDS011;62678;52.130;5.584;2022-12-18T06:55:30;35.38;;;18.73;;
11962;SDS011;62678;52.130;5.584;2022-12-18T06:57:56;37.72;;;19.40;;
11962;SDS011;62678;52.130;5.584;2022-12-18T07:00:24;37.03;;;20.63;;
11962;SDS011;62678;52.130;5.584;2022-12-18T07:02:51;37.13;;;19.92;;
11962;SDS011;62678;52.130;5.584;2022-12-18T07:05:19;39.25;;;20.58;;
11962;SDS011;62678;52.130;5.584;2022-12-18T07:07:46;39.08;;;19.58;;
11962;SDS011;62678;52.130;5.584;2022-12-18T07:10:13;41.40;;;20.88;;
11962;SDS011;62678;52.130;5.584;2022-12-18T07:12:41;41.88;;;21.25;;
11962;SDS011;62678;52.130;5.584;2022-12-18T07:15:08;39.55;;;20.30;;
11962;SDS011;62678;52.130;5.584;2022-12-18T07:17:36;41.28;;;20.70;;
11962;SDS011;62678;52.130;5.584;2022-12-18T07:20:03;40.42;;;21.05;;
11962;SDS011;62678;52.130;5.584;2022-12-18T07:22:32;38.08;;;20.75;;
11962;SDS011;62678;52.130;5.584;2022-12-18T07:24:59;41.25;;;21.55;;
11962;SDS011;62678;52.130;5.584;2022-12-18T07:27:26;38.25;;;19.38;;
11962;SDS011;62678;52.130;5.584;2022-12-18T07:29:53;35.58;;;19.98;;
11962;SDS011;62678;52.130;5.584;2022-12-18T07:32:20;38.80;;;20.55;;
11962;SDS011;62678;52.130;5.584;2022-12-18T07:34:47;36.97;;;19.50;;
11962;SDS011;62678;52.130;5.584;2022-12-18T07:37:14;34.20;;;20.02;;
11962;SDS011;62678;52.130;5.584;2022-12-18T07:39:43;36.72;;;19.67;;
11962;SDS011;62678;52.130;5.584;2022-12-18T07:42:10;35.70;;;18.77;;
11962;SDS011;62678;52.130;5.584;2022-12-18T07:44:55;34.08;;;19.33;;
11962;SDS011;62678;52.130;5.584;2022-12-18T07:47:22;36.25;;;19.05;;
11962;SDS011;62678;52.130;5.584;2022-12-18T07:49:49;34.13;;;18.90;;
11962;SDS011;62678;52.130;5.584;2022-12-18T07:52:17;32.78;;;18.58;;
11962;SDS011;62678;52.130;5.584;2022-12-18T07:54:45;30.30;;;17.70;;
11962;SDS011;62678;52.130;5.584;2022-12-18T07:57:14;31.67;;;18.17;;
11962;SDS011;62678;52.130;5.584;2022-12-18T07:59:41;32.92;;;17.88;;
11962;SDS011;62678;52.130;5.584;2022-12-18T08:02:09;35.42;;;18.38;;
11962;SDS011;62678;52.130;5.584;2022-12-18T08:04:36;31.77;;;17.15;;
11962;SDS011;62678;52.130;5.584;2022-12-18T08:07:03;32.78;;;18.10;;
11962;SDS011;62678;52.130;5.584;2022-12-18T08:09:31;31.05;;;18.02;;
11962;SDS011;62678;52.130;5.584;2022-12-18T08:11:59;35.65;;;18.33;;
11962;SDS011;62678;52.130;5.584;2022-12-18T08:14:26;31.10;;;17.88;;
11962;SDS011;62678;52.130;5.584;2022-12-18T08:16:54;29.45;;;18.15;;
11962;SDS011;62678;52.130;5.584;2022-12-18T08:19:21;31.48;;;17.27;;
11962;SDS011;62678;52.130;5.584;2022-12-18T08:21:48;32.10;;;17.95;;
11962;SDS011;62678;52.130;5.584;2022-12-18T08:24:16;32.58;;;17.75;;
11962;SDS011;62678;52.130;5.584;2022-12-18T08:26:43;31.85;;;17.45;;
11962;SDS011;62678;52.130;5.584;2022-12-18T08:29:11;26.77;;;16.55;;
11962;SDS011;62678;52.130;5.584;2022-12-18T08:31:38;26.17;;;15.35;;
11962;SDS011;62678;52.130;5.584;2022-12-18T08:34:05;27.42;;;15.85;;
11962;SDS011;62678;52.130;5.584;2022-12-18T08:36:34;27.35;;;14.90;;
11962;SDS011;62678;52.130;5.584;2022-12-18T08:39:01;28.02;;;15.80;;
11962;SDS011;62678;52.130;5.584;2022-12-18T08:41:28;26.08;;;14.75;;
11962;SDS011;62678;52.130;5.584;2022-12-18T08:43:56;22.08;;;14.07;;
11962;SDS011;62678;52.130;5.584;2022-12-18T08:46:42;25.67;;;14.32;;
11962;SDS011;62678;52.130;5.584;2022-12-18T08:49:10;27.33;;;14.55;;
11962;SDS011;62678;52.130;5.584;2022-12-18T08:51:38;26.02;;;14.55;;
11962;SDS011;62678;52.130;5.584;2022-12-18T08:54:06;23.55;;;13.95;;
11962;SDS011;62678;52.130;5.584;2022-12-18T08:56:33;24.95;;;15.07;;
11962;SDS011;62678;52.130;5.584;2022-12-18T08:59:01;25.05;;;13.90;;
11962;SDS011;62678;52.130;5.584;2022-12-18T09:01:29;25.40;;;13.65;;
11962;SDS011;62678;52.130;5.584;2022-12-18T09:03:57;25.45;;;14.38;;
11962;SDS011;62678;52.130;5.584;2022-12-18T09:06:25;26.33;;;15.15;;
11962;SDS011;62678;52.130;5.584;2022-12-18T09:08:52;27.88;;;14.93;;
11962;SDS011;62678;52.130;5.584;2022-12-18T09:11:21;26.23;;;14.13;;
11962;SDS011;62678;52.130;5.584;2022-12-18T09:13:50;23.98;;;13.48;;
11962;SDS011;62678;52.130;5.584;2022-12-18T09:16:17;22.88;;;13.60;;
11962;SDS011;62678;52.130;5.584;2022-12-18T09:18:45;22.70;;;13.63;;
11962;SDS011;62678;52.130;5.584;2022-12-18T09:21:15;21.13;;;12.48;;
11962;SDS011;62678;52.130;5.584;2022-12-18T09:23:43;21.33;;;12.77;;
11962;SDS011;62678;52.130;5.584;2022-12-18T09:26:15;23.00;;;12.85;;
11962;SDS011;62678;52.130;5.584;2022-12-18T09:28:42;19.52;;;12.18;;
11962;SDS011;62678;52.130;5.584;2022-12-18T09:31:10;21.98;;;12.93;;
11962;SDS011;62678;52.130;5.584;2022-12-18T09:33:41;19.33;;;12.15;;
11962;SDS011;62678;52.130;5.584;2022-12-18T09:36:10;20.73;;;12.27;;
11962;SDS011;62678;52.130;5.584;2022-12-18T09:38:41;20.25;;;12.65;;
11962;SDS011;62678;52.130;5.584;2022-12-18T09:41:15;19.25;;;11.68;;
11962;SDS011;62678;52.130;5.584;2022-12-18T09:43:51;20.33;;;12.18;;
11962;SDS011;62678;52.130;5.584;2022-12-18T09:46:24;21.17;;;12.10;;
11962;SDS011;62678;52.130;5.584;2022-12-18T09:48:54;21.58;;;11.98;;
11962;SDS011;62678;52.130;5.584;2022-12-18T09:51:26;18.33;;;11.52;;
11962;SDS011;62678;52.130;5.584;2022-12-18T09:53:59;18.10;;;10.43;;
11962;SDS011;62678;52.130;5.584;2022-12-18T09:56:31;20.05;;;11.95;;
11962;SDS011;62678;52.130;5.584;2022-12-18T09:59:03;19.92;;;12.23;;
11962;SDS011;62678;52.130;5.584;2022-12-18T10:01:31;18.10;;;11.23;;
11962;SDS011;62678;52.130;5.584;2022-12-18T10:03:59;17.80;;;11.65;;
11962;SDS011;62678;52.130;5.584;2022-12-18T10:06:27;19.05;;;11.77;;
11962;SDS011;62678;52.130;5.584;2022-12-18T10:09:04;20.38;;;11.30;;
11962;SDS011;62678;52.130;5.584;2022-12-18T10:11:39;19.55;;;11.18;;
11962;SDS011;62678;52.130;5.584;2022-12-18T10:14:15;21.55;;;12.48;;
11962;SDS011;62678;52.130;5.584;2022-12-18T10:16:52;20.48;;;11.45;;
11962;SDS011;62678;52.130;5.584;2022-12-18T10:19:30;21.73;;;11.32;;
11962;SDS011;62678;52.130;5.584;2022-12-18T10:22:11;19.17;;;10.95;;
11962;SDS011;62678;52.130;5.584;2022-12-18T10:24:51;20.90;;;11.63;;
11962;SDS011;62678;52.130;5.584;2022-12-18T10:27:22;19.42;;;10.65;;
11962;SDS011;62678;52.130;5.584;2022-12-18T10:29:51;16.35;;;9.88;;
11962;SDS011;62678;52.130;5.584;2022-12-18T10:32:19;17.60;;;10.13;;
11962;SDS011;62678;52.130;5.584;2022-12-18T10:34:48;19.67;;;10.68;;
11962;SDS011;62678;52.130;5.584;2022-12-18T10:37:17;18.95;;;10.73;;
11962;SDS011;62678;52.130;5.584;2022-12-18T10:39:46;17.20;;;10.70;;
11962;SDS011;62678;52.130;5.584;2022-12-18T10:42:32;18.10;;;9.82;;
11962;SDS011;62678;52.130;5.584;2022-12-18T10:45:00;15.75;;;10.13;;
11962;SDS011;62678;52.130;5.584;2022-12-18T10:47:29;15.30;;;9.75;;
11962;SDS011;62678;52.130;5.584;2022-12-18T10:49:56;17.70;;;10.00;;
11962;SDS011;62678;52.130;5.584;2022-12-18T10:52:24;16.00;;;9.80;;
11962;SDS011;62678;52.130;5.584;2022-12-18T10:54:56;15.25;;;9.77;;
11962;SDS011;62678;52.130;5.584;2022-12-18T10:57:31;15.23;;;9.40;;
11962;SDS011;62678;52.130;5.584;2022-12-18T11:02:50;15.85;;;9.95;;
11962;SDS011;62678;52.130;5.584;2022-12-18T11:05:27;17.10;;;10.27;;
11962;SDS011;62678;52.130;5.584;2022-12-18T11:07:56;16.60;;;10.05;;
11962;SDS011;62678;52.130;5.584;2022-12-18T11:10:28;15.57;;;9.98;;
11962;SDS011;62678;52.130;5.584;2022-12-18T11:13:08;15.43;;;9.80;;
11962;SDS011;62678;52.130;5.584;2022-12-18T11:15:37;17.15;;;10.25;;
11962;SDS011;62678;52.130;5.584;2022-12-18T11:18:14;18.00;;;10.18;;
11962;SDS011;62678;52.130;5.584;2022-12-18T11:20:49;17.30;;;10.55;;
11962;SDS011;62678;52.130;5.584;2022-12-18T11:23:18;15.77;;;9.68;;
11962;SDS011;62678;52.130;5.584;2022-12-18T11:25:51;15.15;;;9.57;;
11962;SDS011;62678;52.130;5.584;2022-12-18T11:31:21;16.58;;;10.43;;
11962;SDS011;62678;52.130;5.584;2022-12-18T11:34:02;15.35;;;9.73;;
11962;SDS011;62678;52.130;5.584;2022-12-18T11:36:38;15.05;;;10.00;;
11962;SDS011;62678;52.130;5.584;2022-12-18T11:39:10;15.02;;;10.02;;
11962;SDS011;62678;52.130;5.584;2022-12-18T11:41:45;16.92;;;9.98;;
11962;SDS011;62678;52.130;5.584;2022-12-18T11:44:36;16.35;;;9.75;;
11962;SDS011;62678;52.130;5.584;2022-12-18T11:47:10;16.38;;;10.27;;
11962;SDS011;62678;52.130;5.584;2022-12-18T11:49:45;16.42;;;10.60;;
11962;SDS011;62678;52.130;5.584;2022-12-18T11:52:16;16.35;;;10.25;;
11962;SDS011;62678;52.130;5.584;2022-12-18T11:54:46;15.35;;;9.63;;
11962;SDS011;62678;52.130;5.584;2022-12-18T11:57:19;18.27;;;9.88;;
11962;SDS011;62678;52.130;5.584;2022-12-18T11:59:55;18.38;;;10.95;;
11962;SDS011;62678;52.130;5.584;2022-12-18T12:02:32;16.60;;;10.38;;
11962;SDS011;62678;52.130;5.584;2022-12-18T12:05:25;16.42;;;10.45;;
11962;SDS011;62678;52.130;5.584;2022-12-18T12:08:06;17.70;;;9.93;;
11962;SDS011;62678;52.130;5.584;2022-12-18T12:10:42;21.67;;;11.73;;
11962;SDS011;62678;52.130;5.584;2022-12-18T12:13:22;20.63;;;11.70;;
11962;SDS011;62678;52.130;5.584;2022-12-18T12:16:03;19.83;;;11.18;;
11962;SDS011;62678;52.130;5.584;2022-12-18T12:18:46;22.80;;;11.98;;
11962;SDS011;62678;52.130;5.584;2022-12-18T12:21:25;20.80;;;11.30;;
11962;SDS011;62678;52.130;5.584;2022-12-18T12:23:57;18.95;;;11.05;;
11962;SDS011;62678;52.130;5.584;2022-12-18T12:26:36;15.43;;;10.55;;
11962;SDS011;62678;52.130;5.584;2022-12-18T12:29:17;17.85;;;10.40;;
11962;SDS011;62678;52.130;5.584;2022-12-18T12:31:57;19.08;;;11.18;;
11962;SDS011;62678;52.130;5.584;2022-12-18T12:34:34;19.85;;;10.70;;
11962;SDS011;62678;52.130;5.584;2022-12-18T12:37:13;18.55;;;11.95;;
11962;SDS011;62678;52.130;5.584;2022-12-18T12:39:49;17.67;;;11.15;;
11962;SDS011;62678;52.130;5.584;2022-12-18T12:42:23;19.05;;;11.23;;
11962;SDS011;62678;52.130;5.584;2022-12-18T12:45:15;17.45;;;11.15;;
11962;SDS011;62678;52.130;5.584;2022-12-18T12:47:46;19.00;;;11.75;;
11962;SDS011;62678;52.130;5.584;2022-12-18T12:50:16;18.13;;;11.15;;
11962;SDS011;62678;52.130;5.584;2022-12-18T12:52:45;18.17;;;11.07;;
11962;SDS011;62678;52.130;5.584;2022-12-18T12:55:17;20.60;;;12.05;;
11962;SDS011;62678;52.130;5.584;2022-12-18T12:57:48;18.98;;;11.32;;
11962;SDS011;62678;52.130;5.584;2022-12-18T13:00:27;19.63;;;11.48;;
11962;SDS011;62678;52.130;5.584;2022-12-18T13:03:04;17.30;;;11.32;;
11962;SDS011;62678;52.130;5.584;2022-12-18T13:05:39;18.10;;;11.00;;
11962;SDS011;62678;52.130;5.584;2022-12-18T13:08:21;18.73;;;11.52;;
11962;SDS011;62678;52.130;5.584;2022-12-18T13:10:50;20.55;;;10.65;;
11962;SDS011;62678;52.130;5.584;2022-12-18T13:13:47;18.20;;;11.45;;
11962;SDS011;62678;52.130;5.584;2022-12-18T13:16:19;29.45;;;13.57;;
11962;SDS011;62678;52.130;5.584;2022-12-18T13:18:51;21.20;;;11.73;;
11962;SDS011;62678;52.130;5.584;2022-12-18T13:21:51;20.08;;;11.82;;
11962;SDS011;62678;52.130;5.584;2022-12-18T13:24:23;19.30;;;12.27;;
11962;SDS011;62678;52.130;5.584;2022-12-18T13:26:52;22.25;;;12.48;;
11962;SDS011;62678;52.130;5.584;2022-12-18T13:32:20;19.05;;;11.30;;
11962;SDS011;62678;52.130;5.584;2022-12-18T13:34:49;20.90;;;12.82;;
11962;SDS011;62678;52.130;5.584;2022-12-18T13:37:54;17.80;;;11.57;;
11962;SDS011;62678;52.130;5.584;2022-12-18T13:43:26;19.63;;;11.77;;
11962;SDS011;62678;52.130;5.584;2022-12-18T13:46:03;20.27;;;12.38;;
11962;SDS011;62678;52.130;5.584;2022-12-18T13:48:35;20.75;;;11.90;;
11962;SDS011;62678;52.130;5.584;2022-12-18T13:51:06;19.85;;;12.35;;
11962;SDS011;62678;52.130;5.584;2022-12-18T13:53:36;21.23;;;11.95;;
11962;SDS011;62678;52.130;5.584;2022-12-18T13:56:08;19.63;;;11.77;;
11962;SDS011;62678;52.130;5.584;2022-12-18T13:58:35;20.08;;;12.52;;
11962;SDS011;62678;52.130;5.584;2022-12-18T14:01:02;18.50;;;12.38;;
11962;SDS011;62678;52.130;5.584;2022-12-18T14:03:29;19.63;;;12.13;;
11962;SDS011;62678;52.130;5.584;2022-12-18T14:06:03;18.13;;;11.55;;
11962;SDS011;62678;52.130;5.584;2022-12-18T14:08:35;21.10;;;12.45;;
11962;SDS011;62678;52.130;5.584;2022-12-18T14:11:05;20.25;;;11.95;;
11962;SDS011;62678;52.130;5.584;2022-12-18T14:13:44;19.15;;;11.90;;
11962;SDS011;62678;52.130;5.584;2022-12-18T14:16:13;19.45;;;12.45;;
11962;SDS011;62678;52.130;5.584;2022-12-18T14:18:44;20.13;;;12.38;;
11962;SDS011;62678;52.130;5.584;2022-12-18T14:21:18;22.23;;;12.57;;
11962;SDS011;62678;52.130;5.584;2022-12-18T14:23:47;23.13;;;13.05;;
11962;SDS011;62678;52.130;5.584;2022-12-18T14:26:22;19.73;;;12.35;;
11962;SDS011;62678;52.130;5.584;2022-12-18T14:28:52;20.20;;;12.45;;
11962;SDS011;62678;52.130;5.584;2022-12-18T14:31:20;19.75;;;11.85;;
11962;SDS011;62678;52.130;5.584;2022-12-18T14:33:49;21.90;;;12.75;;
11962;SDS011;62678;52.130;5.584;2022-12-18T14:36:18;18.48;;;11.85;;
11962;SDS011;62678;52.130;5.584;2022-12-18T14:38:47;20.13;;;11.73;;
11962;SDS011;62678;52.130;5.584;2022-12-18T14:41:16;23.35;;;13.90;;
11962;SDS011;62678;52.130;5.584;2022-12-18T14:43:44;21.77;;;13.60;;
11962;SDS011;62678;52.130;5.584;2022-12-18T14:46:28;21.13;;;13.35;;
11962;SDS011;62678;52.130;5.584;2022-12-18T14:48:59;18.50;;;12.10;;
11962;SDS011;62678;52.130;5.584;2022-12-18T14:51:29;20.73;;;12.68;;
11962;SDS011;62678;52.130;5.584;2022-12-18T14:53:58;23.00;;;12.18;;
11962;SDS011;62678;52.130;5.584;2022-12-18T14:56:26;21.60;;;13.45;;